Warning: Javascript must be enabled to use all the features on this page!


Page Loading - Please Wait...

Click to hideNews Bulletins

Peak Streamflow for the Nation

USGS 11460400 LAGUNITAS C A SAMUEL P TAYLOR STATE PARK CA

Marin County, California
Hydrologic Unit Code 18050005
Latitude  38°01'37", Longitude 122°44'07" NAD27
Drainage area 34.3  square miles
Output formats
Table
Graph
Tab-separated file
peakfq (watstore) format
Reselect output format
Water
Year
Date Gage
Height
(feet)
Stream-
flow
(cfs)
1983 1983-03-13 7.65 2,620
1984 1983-12-25 6.86 1,8406
1985 1985-02-08 6.83 1,8106
1986 1986-02-18 8.44 3,4706
1987 1987-02-13 7.00 1,9406
1988 1987-12-08 5.59 8756
1989 1989-03-10 6.25 1,3006
1990 1990-05-27 4.98 5866
1991 1991-03-03 5.87 1,0406
1992 1992-02-19 6.73 1,6806
1993 1993-01-20 7.14 2,0706
1994 1994-02-07 4.47 3996
1995 1995-01-08 7.99 2,9906
1996 1996-02-04 8.05 3,0206
1997 1997-01-01 8.49 3,5206
1998 1998-02-03 10.00 5,8306
1999 1999-02-06 6.93 1,8606
2000 2000-02-13 6.82 1,7606
2001 2001-02-21 4.77 5046
2002 2001-12-01 7.48 2,4006
2003 2002-12-16 7.69 2,6206
2004 2003-12-29 8.24 3,2306
2005 2004-12-27 6.95 1,7706
2006 2005-12-31 13.21 10,2006
2007 2007-02-10 5.63 8976
2008 2008-01-04 7.59 2,3606
2009 2009-02-22 6.46 1,4306
2010 2010-01-20 6.54 1,5006
2011 2011-03-20 7.15 1,9806
2012 2012-03-14 7.12 1,9606
2013 2012-12-02 7.81 2,5506
2014 2014-02-09 5.66 9146
2015 2014-12-11 7.05 1,9006
2016 2016-03-11 6.38 1,6506
2017 2017-02-07 9.02 4,3906
2018 2018-03-22 6.15 1,4506
2019 2019-02-26 8.77 4,1006
2020 2019-12-22 4.32 3546
2021 2021-01-27 3.61 1826
2022 2021-10-24 8.47 3,7606
?
  Peak Streamflow Qualification Codes.